Time;durP1;ratioP1;P1;durP2;ratioP2;P2;SDS_P1;SDS_P2;PMS_P1;PMS_P2;Temp;Humidity;BMP_temperature;BMP_pressure;BME280_temperature;BME280_humidity;BME280_pressure;Samples;Min_cycle;Max_cycle;Signal;HPM_P1;HPM_P2
2022/08/16 00:00:33;;;;;;;0.40;0.40;;;20.00;99.90;;;;;;4974033;28;20185;-70
2022/08/16 00:03:01;;;;;;;0.40;0.40;;;19.80;99.90;;;;;;4956623;28;20640;-71
2022/08/16 00:05:30;;;;;;;1.27;0.50;;;20.20;99.90;;;;;;4962653;28;20180;-72
2022/08/16 00:07:58;;;;;;;0.80;0.60;;;20.30;99.90;;;;;;4954754;29;20184;-71
2022/08/16 00:10:28;;;;;;;1.00;0.63;;;20.60;99.90;;;;;;4954633;29;20188;-71
2022/08/16 00:12:56;;;;;;;1.13;0.50;;;20.80;99.90;;;;;;4954543;29;20215;-72
2022/08/16 00:15:42;;;;;;;0.50;0.40;;;21.40;99.90;;;;;;4954582;29;20540;-71
2022/08/16 00:18:10;;;;;;;0.53;0.40;;;21.50;97.60;;;;;;4954356;29;20699;-72
2022/08/16 00:20:40;;;;;;;0.40;0.33;;;21.10;93.50;;;;;;4970529;28;20194;-71
2022/08/16 00:23:08;;;;;;;2.90;0.50;;;20.40;95.20;;;;;;4973255;28;20209;-71
2022/08/16 00:25:36;;;;;;;1.47;0.40;;;20.60;97.60;;;;;;4973041;28;20665;-70
2022/08/16 00:28:05;;;;;;;3.50;0.60;;;21.20;95.30;;;;;;4973226;28;20243;-70
2022/08/16 00:30:32;;;;;;;0.70;0.53;;;21.50;94.10;;;;;;4972754;28;20613;-71
2022/08/16 00:33:01;;;;;;;0.37;0.37;;;21.50;94.30;;;;;;4972817;28;20213;-71
2022/08/16 00:35:34;;;;;;;1.60;0.50;;;22.00;92.30;;;;;;4956051;28;20195;-70
2022/08/16 00:38:04;;;;;;;1.60;0.40;;;21.90;89.20;;;;;;4973109;28;20617;-71
2022/08/16 00:40:41;;;;;;;1.50;0.37;;;22.20;86.60;;;;;;4973385;28;20184;-71
2022/08/16 00:43:15;;;;;;;1.83;0.37;;;21.80;86.20;;;;;;4972826;28;20188;-71
2022/08/16 00:46:10;;;;;;;0.57;0.50;;;21.60;91.00;;;;;;4955112;28;20617;-71
2022/08/16 00:48:38;;;;;;;0.83;0.40;;;21.40;93.20;;;;;;4972727;28;20698;-70
2022/08/16 00:51:06;;;;;;;0.70;0.40;;;21.20;95.60;;;;;;4953949;28;20690;-74
2022/08/16 00:53:57;;;;;;;0.63;0.40;;;21.40;91.10;;;;;;4973835;28;20210;-78
2022/08/16 00:56:29;;;;;;;2.27;0.40;;;21.60;92.60;;;;;;4964424;28;20528;-76
2022/08/16 00:58:56;;;;;;;2.30;0.40;;;21.60;92.50;;;;;;4953724;29;20275;-75
2022/08/16 01:01:24;;;;;;;0.30;0.30;;;21.60;93.20;;;;;;4953840;29;20571;-74
2022/08/16 01:03:54;;;;;;;0.87;0.30;;;22.10;86.20;;;;;;4953645;29;20172;-74
2022/08/16 01:06:24;;;;;;;1.20;0.50;;;22.30;87.90;;;;;;4953560;29;20195;-69
2022/08/16 01:08:55;;;;;;;1.37;0.50;;;22.30;83.90;;;;;;4965217;28;20187;-69
2022/08/16 01:11:29;;;;;;;0.87;0.47;;;22.00;83.30;;;;;;4973577;28;20639;-70
2022/08/16 01:14:06;;;;;;;0.93;0.40;;;22.00;82.90;;;;;;4954873;28;20710;-71
2022/08/16 01:16:37;;;;;;;0.73;0.40;;;22.40;84.30;;;;;;4971420;28;20191;-75
2022/08/16 01:19:21;;;;;;;1.23;0.50;;;22.50;86.70;;;;;;4972334;28;20309;-73
2022/08/16 01:22:01;;;;;;;0.83;0.40;;;22.40;78.30;;;;;;4961834;28;20724;-71
2022/08/16 01:24:59;;;;;;;0.47;0.30;;;21.40;79.20;;;;;;4974208;28;20646;-71
2022/08/16 01:27:37;;;;;;;0.40;0.40;;;21.10;76.70;;;;;;4955583;28;20229;-76
2022/08/16 01:30:07;;;;;;;0.30;0.30;;;21.00;70.70;;;;;;4972722;28;20541;-71
2022/08/16 01:32:41;;;;;;;0.73;0.40;;;21.30;73.30;;;;;;4973004;28;20261;-70
2022/08/16 01:35:20;;;;;;;0.97;0.40;;;21.60;66.50;;;;;;4986375;28;20186;-72
2022/08/16 01:37:51;;;;;;;1.67;0.30;;;21.20;56.40;;;;;;4972898;28;20175;-75
2022/08/16 01:40:22;;;;;;;0.80;0.40;;;21.60;55.30;;;;;;4955259;28;20191;-76
2022/08/16 01:42:50;;;;;;;0.30;0.30;;;21.70;57.70;;;;;;4972467;28;20185;-77
2022/08/16 01:45:19;;;;;;;2.40;0.40;;;21.30;53.60;;;;;;4972417;28;20529;-77
2022/08/16 01:47:49;;;;;;;0.37;0.37;;;21.20;54.00;;;;;;4955204;28;20201;-76
2022/08/16 01:50:18;;;;;;;0.33;0.30;;;21.20;53.00;;;;;;4955309;28;20184;-78
2022/08/16 01:52:45;;;;;;;2.30;0.30;;;21.20;56.20;;;;;;4972326;28;20542;-75
2022/08/16 01:55:17;;;;;;;0.30;0.30;;;21.40;52.70;;;;;;4972288;28;20184;-70
2022/08/16 01:57:45;;;;;;;0.30;0.30;;;21.20;51.50;;;;;;4972406;28;20179;-74
2022/08/16 02:00:14;;;;;;;0.30;0.30;;;21.30;52.90;;;;;;4972765;28;20623;-76
2022/08/16 02:02:43;;;;;;;0.40;0.30;;;21.40;53.00;;;;;;4955087;28;20286;-78
2022/08/16 02:05:12;;;;;;;0.20;0.20;;;21.60;52.60;;;;;;4971925;28;20210;-72
2022/08/16 02:07:42;;;;;;;0.20;0.20;;;22.00;54.40;;;;;;4954903;28;20195;-73
2022/08/16 02:10:10;;;;;;;0.23;0.20;;;22.20;52.60;;;;;;4972155;28;20297;-69
2022/08/16 02:12:37;;;;;;;0.20;0.20;;;22.80;49.80;;;;;;4954716;28;20221;-72
2022/08/16 02:15:07;;;;;;;3.10;0.30;;;22.90;52.00;;;;;;4954263;28;20194;-74
2022/08/16 02:17:35;;;;;;;3.27;1.23;;;23.10;50.80;;;;;;4971494;28;20183;-72
2022/08/16 02:20:04;;;;;;;0.30;0.30;;;23.00;48.40;;;;;;4972298;28;20186;-75
2022/08/16 02:22:32;;;;;;;0.40;0.30;;;22.40;48.00;;;;;;4971605;28;20340;-72
2022/08/16 02:25:03;;;;;;;1.60;0.40;;;22.20;50.30;;;;;;4955315;28;20195;-72
2022/08/16 02:27:30;;;;;;;0.40;0.30;;;22.70;49.10;;;;;;4975753;28;20197;-71
2022/08/16 02:29:58;;;;;;;0.30;0.30;;;22.90;49.30;;;;;;4975755;28;20215;-73
2022/08/16 02:32:25;;;;;;;1.57;0.40;;;22.90;48.70;;;;;;4957408;28;20241;-71
2022/08/16 02:34:55;;;;;;;0.30;0.30;;;22.90;46.90;;;;;;4975820;28;20205;-79
2022/08/16 02:37:23;;;;;;;7.43;0.53;;;23.10;46.20;;;;;;4978345;28;20306;-73
2022/08/16 02:39:50;;;;;;;0.60;0.30;;;23.30;45.50;;;;;;4976277;28;20184;-74
2022/08/16 02:42:18;;;;;;;0.80;0.30;;;22.60;44.50;;;;;;4975637;28;20232;-75
2022/08/16 02:44:46;;;;;;;0.30;0.30;;;22.10;45.80;;;;;;4975611;28;20377;-70
2022/08/16 02:47:13;;;;;;;1.63;0.40;;;22.20;47.20;;;;;;4958162;28;20622;-75
2022/08/16 02:49:45;;;;;;;2.40;0.40;;;22.50;48.50;;;;;;4974846;28;20211;-73
2022/08/16 02:52:15;;;;;;;1.17;0.37;;;22.40;47.90;;;;;;4958964;28;20213;-71
2022/08/16 02:54:43;;;;;;;3.10;0.63;;;21.80;46.00;;;;;;4958827;28;20175;-76
2022/08/16 02:57:10;;;;;;;2.63;0.30;;;21.90;45.80;;;;;;4974768;28;20199;-74
2022/08/16 02:59:41;;;;;;;1.23;0.33;;;22.00;45.70;;;;;;4975399;28;20227;-76
2022/08/16 03:02:13;;;;;;;1.13;0.30;;;22.00;46.10;;;;;;4975389;28;20187;-78
2022/08/16 03:04:40;;;;;;;0.50;0.30;;;22.00;45.00;;;;;;4975259;28;20175;-76
2022/08/16 03:07:08;;;;;;;1.07;0.30;;;22.00;44.70;;;;;;4975053;28;20558;-75
2022/08/16 03:09:35;;;;;;;1.90;0.33;;;22.40;44.70;;;;;;4975099;28;20217;-72
2022/08/16 03:12:04;;;;;;;0.30;0.30;;;22.80;45.00;;;;;;4974949;28;20194;-73
2022/08/16 03:14:32;;;;;;;0.60;0.23;;;22.70;42.30;;;;;;4974879;28;20644;-77
2022/08/16 03:17:00;;;;;;;4.20;0.40;;;22.50;43.60;;;;;;4974951;28;20643;-77
2022/08/16 03:19:30;;;;;;;0.37;0.37;;;22.30;43.20;;;;;;4974813;28;20244;-75
2022/08/16 03:21:57;;;;;;;1.23;0.57;;;21.70;44.50;;;;;;4980307;28;20266;-76
2022/08/16 03:24:27;;;;;;;0.50;0.30;;;21.00;44.20;;;;;;4974425;28;20676;-74
2022/08/16 03:26:59;;;;;;;1.17;0.30;;;20.40;47.10;;;;;;4974601;28;20233;-73
2022/08/16 03:29:30;;;;;;;0.43;0.40;;;20.10;46.90;;;;;;4974638;28;20182;-75
2022/08/16 03:31:59;;;;;;;0.40;0.40;;;20.00;47.40;;;;;;4938300;29;20196;-71
2022/08/16 03:34:28;;;;;;;1.07;0.57;;;19.60;49.80;;;;;;4968521;28;20229;-74
2022/08/16 03:36:56;;;;;;;0.90;0.50;;;19.90;51.80;;;;;;4973614;28;20209;-70
2022/08/16 03:39:24;;;;;;;0.77;0.40;;;20.50;51.10;;;;;;4974103;28;20194;-74
2022/08/16 03:41:53;;;;;;;0.30;0.30;;;21.10;49.20;;;;;;4974390;28;20190;-74
2022/08/16 03:44:22;;;;;;;1.13;0.60;;;20.80;46.70;;;;;;4957259;28;20192;-70
2022/08/16 03:46:49;;;;;;;0.70;0.47;;;20.50;46.40;;;;;;4957337;28;20226;-75
2022/08/16 03:49:18;;;;;;;0.73;0.40;;;21.00;48.30;;;;;;4974073;28;20185;-75
2022/08/16 03:51:46;;;;;;;4.97;0.80;;;21.40;48.10;;;;;;4955151;29;20195;-73
2022/08/16 03:54:14;;;;;;;1.87;0.60;;;21.50;45.20;;;;;;4971172;28;20246;-75
2022/08/16 03:56:42;;;;;;;0.80;0.50;;;21.40;44.50;;;;;;4973921;28;20250;-74
2022/08/16 03:59:09;;;;;;;1.70;0.73;;;21.40;45.60;;;;;;4973940;28;20193;-73
2022/08/16 04:01:37;;;;;;;1.10;0.60;;;21.10;43.80;;;;;;4972748;28;20187;-71
2022/08/16 04:04:04;;;;;;;1.70;0.30;;;20.50;44.70;;;;;;4973771;28;20189;-73
2022/08/16 04:06:36;;;;;;;2.30;0.60;;;20.10;47.00;;;;;;4974096;28;20481;-72
2022/08/16 04:09:04;;;;;;;0.63;0.50;;;19.60;49.80;;;;;;4971606;28;20229;-73
2022/08/16 04:11:31;;;;;;;2.23;0.60;;;19.40;50.50;;;;;;4956499;28;20333;-71
2022/08/16 04:13:58;;;;;;;0.43;0.43;;;19.20;53.90;;;;;;4972720;28;20587;-72
2022/08/16 04:16:26;;;;;;;0.50;0.40;;;19.00;54.10;;;;;;4973026;28;20292;-75
2022/08/16 04:18:53;;;;;;;2.73;0.40;;;18.80;55.40;;;;;;4973458;28;20274;-75
2022/08/16 04:21:20;;;;;;;1.97;0.50;;;18.60;55.40;;;;;;4972886;28;20706;-71
2022/08/16 04:23:48;;;;;;;1.10;0.40;;;18.50;58.00;;;;;;4973282;28;20185;-72
2022/08/16 04:26:15;;;;;;;1.90;0.40;;;19.10;58.10;;;;;;4955622;28;20330;-71
2022/08/16 04:28:43;;;;;;;1.47;0.40;;;19.30;50.60;;;;;;4973076;28;20407;-75
2022/08/16 04:31:10;;;;;;;0.40;0.40;;;19.30;51.60;;;;;;4973587;28;20537;-74
2022/08/16 04:33:38;;;;;;;1.30;0.50;;;19.80;53.70;;;;;;4956869;28;20244;-73
2022/08/16 04:36:06;;;;;;;0.50;0.40;;;20.10;51.00;;;;;;4973406;28;20692;-72
2022/08/16 04:38:34;;;;;;;1.10;0.50;;;20.10;50.30;;;;;;4972679;28;20266;-74
2022/08/16 04:41:01;;;;;;;1.10;0.40;;;19.90;49.90;;;;;;4972926;28;20643;-74
2022/08/16 04:43:28;;;;;;;0.90;0.40;;;19.80;50.60;;;;;;4971902;28;20175;-74
2022/08/16 04:45:56;;;;;;;0.80;0.70;;;19.20;53.10;;;;;;4972917;28;20745;-74
2022/08/16 04:48:23;;;;;;;0.67;0.67;;;18.70;54.30;;;;;;4972435;28;20281;-74
2022/08/16 04:50:50;;;;;;;0.40;0.40;;;18.60;61.20;;;;;;4973915;28;20182;-76
2022/08/16 04:53:21;;;;;;;1.07;0.40;;;18.50;65.20;;;;;;4956238;28;20250;-76
2022/08/16 04:55:50;;;;;;;1.13;0.50;;;18.70;63.40;;;;;;4971615;28;20274;-74
2022/08/16 04:58:19;;;;;;;0.70;0.40;;;19.10;64.10;;;;;;4982808;28;20190;-69
2022/08/16 05:00:48;;;;;;;0.70;0.50;;;19.50;59.90;;;;;;4972207;28;20179;-72
2022/08/16 05:03:15;;;;;;;2.60;0.50;;;19.60;60.50;;;;;;4972906;28;20273;-71
2022/08/16 05:05:43;;;;;;;1.03;0.40;;;19.80;63.40;;;;;;4971532;28;20245;-71
2022/08/16 05:08:12;;;;;;;0.37;0.30;;;19.80;54.70;;;;;;4973605;28;20179;-74
2022/08/16 05:10:40;;;;;;;0.30;0.30;;;19.50;54.30;;;;;;4973036;28;20193;-74
2022/08/16 05:13:09;;;;;;;1.03;0.50;;;19.40;55.30;;;;;;4972968;28;20662;-72
2022/08/16 05:15:36;;;;;;;0.30;0.30;;;19.40;56.70;;;;;;4955867;28;20215;-74
2022/08/16 05:18:05;;;;;;;4.07;0.40;;;19.40;56.80;;;;;;4971990;28;20627;-74
2022/08/16 05:20:36;;;;;;;0.80;0.40;;;19.30;57.20;;;;;;4973011;28;20186;-71
2022/08/16 05:23:03;;;;;;;0.50;0.50;;;19.30;55.10;;;;;;4963623;28;20199;-72
2022/08/16 05:25:38;;;;;;;0.43;0.40;;;19.20;51.80;;;;;;4954749;29;20185;-74
2022/08/16 05:28:09;;;;;;;0.53;0.50;;;19.10;51.90;;;;;;4954462;29;20196;-73
2022/08/16 05:30:38;;;;;;;0.80;0.60;;;18.90;54.00;;;;;;4937512;29;20196;-71
2022/08/16 05:33:07;;;;;;;0.87;0.50;;;19.00;56.00;;;;;;4937030;29;20710;-71
2022/08/16 05:35:38;;;;;;;0.77;0.40;;;19.00;56.10;;;;;;4966207;28;20179;-71
2022/08/16 05:38:09;;;;;;;0.60;0.50;;;18.80;55.20;;;;;;4941209;28;20193;-73
2022/08/16 05:40:37;;;;;;;0.40;0.40;;;18.70;56.60;;;;;;4972629;28;20204;-70
2022/08/16 05:43:06;;;;;;;0.40;0.40;;;18.60;57.90;;;;;;4955801;28;20603;-71
2022/08/16 05:45:34;;;;;;;0.57;0.40;;;18.40;61.50;;;;;;4971671;28;20187;-73
2022/08/16 05:48:02;;;;;;;1.60;0.40;;;18.40;64.70;;;;;;4955190;28;20184;-70
2022/08/16 05:50:34;;;;;;;1.17;0.70;;;18.40;65.70;;;;;;4971700;28;20187;-72
2022/08/16 05:53:01;;;;;;;0.93;0.50;;;18.60;65.80;;;;;;4972496;28;20207;-71
2022/08/16 05:55:29;;;;;;;1.03;0.40;;;18.60;61.20;;;;;;4956504;28;20179;-71
2022/08/16 05:57:56;;;;;;;0.50;0.40;;;18.60;64.10;;;;;;4976604;28;20545;-72
2022/08/16 06:00:24;;;;;;;0.40;0.40;;;18.60;63.20;;;;;;4974376;28;20555;-71
2022/08/16 06:02:52;;;;;;;1.40;0.50;;;18.50;63.70;;;;;;4976764;28;20194;-71
2022/08/16 06:05:19;;;;;;;0.90;0.40;;;18.30;63.20;;;;;;4959255;28;20559;-73
2022/08/16 06:07:46;;;;;;;0.83;0.40;;;18.20;68.30;;;;;;4976484;28;20527;-71
2022/08/16 06:10:14;;;;;;;1.53;0.60;;;18.20;68.20;;;;;;4976101;28;20674;-70
2022/08/16 06:12:41;;;;;;;1.37;0.60;;;18.10;67.20;;;;;;4975840;28;20670;-74
2022/08/16 06:15:16;;;;;;;1.73;0.57;;;18.10;69.20;;;;;;4975520;28;20183;-71
2022/08/16 06:17:45;;;;;;;1.57;0.50;;;18.00;67.50;;;;;;4976072;28;20222;-70
2022/08/16 06:20:22;;;;;;;2.27;0.40;;;18.00;71.50;;;;;;4958738;28;20199;-70
2022/08/16 06:22:49;;;;;;;1.17;0.50;;;18.00;71.30;;;;;;4961542;28;20228;-71
2022/08/16 06:25:17;;;;;;;3.40;0.67;;;17.90;76.10;;;;;;4975930;28;20277;-73
2022/08/16 06:27:44;;;;;;;0.67;0.53;;;17.90;80.70;;;;;;4982476;28;20187;-69
2022/08/16 06:30:13;;;;;;;0.60;0.40;;;17.80;79.80;;;;;;4975978;28;20549;-70
2022/08/16 06:32:40;;;;;;;1.30;0.67;;;17.70;83.90;;;;;;4966871;28;20211;-71
2022/08/16 06:35:14;;;;;;;2.57;0.53;;;17.60;85.70;;;;;;4956560;29;20179;-68
2022/08/16 06:37:42;;;;;;;1.63;0.60;;;17.50;90.80;;;;;;4939543;29;20275;-68
2022/08/16 06:40:11;;;;;;;0.93;0.63;;;17.40;93.30;;;;;;4956575;29;20203;-70
2022/08/16 06:42:39;;;;;;;1.83;0.40;;;17.40;93.80;;;;;;4953214;28;20246;-71
2022/08/16 06:45:08;;;;;;;1.07;0.60;;;17.30;96.40;;;;;;4956347;29;20190;-69
2022/08/16 06:47:36;;;;;;;1.27;0.50;;;17.20;97.10;;;;;;4968267;28;20560;-70
2022/08/16 06:50:04;;;;;;;3.87;0.40;;;17.10;99.20;;;;;;4975683;28;20662;-69
2022/08/16 06:52:35;;;;;;;1.87;0.70;;;17.00;99.90;;;;;;4974879;28;20203;-71
2022/08/16 06:55:05;;;;;;;0.83;0.60;;;16.90;99.90;;;;;;4958286;28;20186;-69
2022/08/16 06:57:33;;;;;;;0.87;0.60;;;16.90;99.90;;;;;;4975278;28;20202;-69
2022/08/16 07:00:01;;;;;;;0.60;0.53;;;16.90;99.90;;;;;;4975090;28;20180;-71
2022/08/16 07:02:28;;;;;;;4.90;0.67;;;16.90;99.90;;;;;;4975045;28;20703;-70
2022/08/16 07:04:56;;;;;;;2.10;1.07;;;16.80;99.90;;;;;;4975227;28;20265;-70
2022/08/16 07:07:23;;;;;;;2.30;0.90;;;16.70;99.90;;;;;;4975328;28;20226;-69
2022/08/16 07:09:50;;;;;;;1.23;0.80;;;16.70;99.90;;;;;;4974748;28;20209;-70
2022/08/16 07:12:18;;;;;;;1.57;0.70;;;16.50;99.90;;;;;;4973809;28;20852;-70
2022/08/16 07:14:48;;;;;;;4.33;0.97;;;16.40;99.90;;;;;;4957725;28;20555;-70
2022/08/16 07:17:18;;;;;;;2.00;1.00;;;16.30;99.90;;;;;;4974582;28;20195;-70
2022/08/16 07:19:45;;;;;;;2.40;1.23;;;16.30;99.90;;;;;;4956616;28;20719;-74
2022/08/16 07:22:13;;;;;;;0.97;0.70;;;16.20;99.90;;;;;;4957292;28;20223;-71
2022/08/16 07:24:43;;;;;;;3.30;1.00;;;16.10;99.90;;;;;;4974823;28;20254;-70
2022/08/16 07:27:11;;;;;;;3.70;1.80;;;16.10;99.90;;;;;;4974633;28;20561;-70
2022/08/16 07:29:39;;;;;;;3.27;1.40;;;16.00;99.90;;;;;;4974157;28;20194;-72
2022/08/16 07:32:07;;;;;;;3.27;2.77;;;16.00;99.90;;;;;;4974621;28;20234;-71
2022/08/16 07:34:37;;;;;;;0.80;0.80;;;15.90;99.90;;;;;;4974556;28;20218;-71
2022/08/16 07:37:08;;;;;;;1.70;1.10;;;15.80;99.90;;;;;;4957874;28;20513;-70
2022/08/16 07:39:35;;;;;;;1.27;1.07;;;15.80;99.90;;;;;;4974665;28;20189;-71
2022/08/16 07:42:03;;;;;;;1.27;0.90;;;15.70;99.90;;;;;;4974477;28;20191;-69
2022/08/16 07:44:31;;;;;;;0.60;0.60;;;15.60;99.90;;;;;;4974332;28;20655;-70
2022/08/16 07:46:59;;;;;;;1.97;0.77;;;15.60;99.90;;;;;;4974639;28;20186;-71
2022/08/16 07:49:26;;;;;;;2.60;0.90;;;15.60;99.90;;;;;;4974106;28;20197;-74
2022/08/16 07:51:53;;;;;;;1.43;0.90;;;15.60;99.90;;;;;;4974190;28;20186;-72
2022/08/16 07:54:21;;;;;;;1.43;0.70;;;15.60;99.90;;;;;;4956682;28;20568;-71
2022/08/16 07:56:49;;;;;;;2.20;0.63;;;15.60;99.90;;;;;;4956982;28;20257;-73
2022/08/16 07:59:16;;;;;;;1.90;0.90;;;15.60;99.90;;;;;;4974444;28;20206;-74
2022/08/16 08:01:44;;;;;;;3.70;0.80;;;15.60;99.90;;;;;;4956808;28;20206;-73
2022/08/16 08:04:12;;;;;;;1.47;0.80;;;15.60;99.90;;;;;;4974133;28;20528;-74
2022/08/16 08:06:40;;;;;;;1.77;0.70;;;15.60;99.90;;;;;;4974276;28;20190;-76
2022/08/16 08:09:08;;;;;;;0.80;0.67;;;15.50;99.90;;;;;;4973101;28;20345;-73
2022/08/16 08:11:35;;;;;;;1.23;0.70;;;15.40;99.90;;;;;;4973844;28;20191;-73
2022/08/16 08:14:03;;;;;;;5.63;0.80;;;15.30;99.90;;;;;;4973749;28;20230;-73
2022/08/16 08:16:32;;;;;;;1.83;0.80;;;15.20;99.90;;;;;;4973901;28;20474;-75
2022/08/16 08:19:00;;;;;;;1.07;0.77;;;15.10;99.90;;;;;;4956257;28;20622;-74
2022/08/16 08:21:28;;;;;;;1.40;1.17;;;15.10;99.90;;;;;;4973704;28;20179;-74
2022/08/16 08:23:58;;;;;;;1.73;1.07;;;15.00;99.90;;;;;;4973704;28;20616;-73
2022/08/16 08:26:28;;;;;;;1.30;1.00;;;15.00;99.90;;;;;;4972872;28;20231;-69
2022/08/16 08:28:56;;;;;;;0.80;0.80;;;14.90;99.90;;;;;;4956881;28;20658;-69
2022/08/16 08:31:23;;;;;;;3.67;0.90;;;14.90;99.90;;;;;;4973582;28;20176;-70
2022/08/16 08:33:55;;;;;;;1.97;1.17;;;14.90;99.90;;;;;;4973616;28;20223;-69
2022/08/16 08:36:29;;;;;;;3.87;2.27;;;14.80;99.90;;;;;;4956238;28;20192;-70
2022/08/16 08:38:57;;;;;;;3.30;1.30;;;14.80;99.90;;;;;;4973694;28;20324;-70
2022/08/16 08:41:28;;;;;;;1.50;1.20;;;14.70;99.90;;;;;;4973532;28;20652;-69
2022/08/16 08:43:56;;;;;;;3.20;1.00;;;14.70;99.90;;;;;;4964578;28;20646;-69
2022/08/16 08:46:24;;;;;;;1.33;1.17;;;14.60;99.90;;;;;;4954325;29;20183;-70
2022/08/16 08:48:54;;;;;;;1.50;1.07;;;14.50;99.90;;;;;;4953916;29;20673;-73
2022/08/16 08:51:24;;;;;;;1.40;1.10;;;14.50;99.90;;;;;;4954032;29;20602;-69
2022/08/16 08:53:52;;;;;;;1.70;1.20;;;14.40;99.90;;;;;;4953902;29;20233;-69
2022/08/16 08:56:19;;;;;;;1.53;0.90;;;14.30;99.90;;;;;;4936908;29;20639;-69
2022/08/16 08:58:47;;;;;;;2.10;1.20;;;14.20;99.90;;;;;;4953801;29;20226;-69
2022/08/16 09:01:18;;;;;;;2.00;1.13;;;14.10;99.90;;;;;;4936818;29;20185;-73
2022/08/16 09:03:45;;;;;;;3.07;1.17;;;14.10;99.90;;;;;;4954077;29;20276;-69
2022/08/16 09:06:12;;;;;;;1.70;1.00;;;14.10;99.90;;;;;;4954012;29;20232;-72
2022/08/16 09:08:43;;;;;;;1.47;1.10;;;14.00;99.90;;;;;;4953826;29;20174;-69
2022/08/16 09:11:10;;;;;;;1.43;1.00;;;13.90;99.90;;;;;;4953807;29;20181;-69
2022/08/16 09:13:37;;;;;;;3.10;1.40;;;13.90;99.90;;;;;;4953717;29;20300;-70
2022/08/16 09:16:05;;;;;;;3.23;1.10;;;13.80;99.90;;;;;;4969531;28;20182;-77
2022/08/16 09:18:33;;;;;;;2.70;1.10;;;13.80;99.90;;;;;;4974630;28;20240;-73
2022/08/16 09:21:00;;;;;;;4.20;1.10;;;13.70;99.90;;;;;;4985016;28;20276;-73
2022/08/16 09:23:34;;;;;;;0.90;0.80;;;13.70;99.90;;;;;;4972848;28;20245;-72
2022/08/16 09:26:03;;;;;;;1.37;1.10;;;13.60;99.90;;;;;;4973048;28;20183;-72
2022/08/16 09:28:31;;;;;;;3.53;0.90;;;13.60;99.90;;;;;;4972195;28;20362;-74
2022/08/16 09:30:59;;;;;;;1.77;1.30;;;13.50;99.90;;;;;;4972825;28;20189;-75
2022/08/16 09:33:27;;;;;;;4.87;1.77;;;13.60;99.90;;;;;;4971606;28;20256;-73
2022/08/16 09:35:55;;;;;;;3.50;2.90;;;13.50;99.90;;;;;;4972292;28;20174;-71
2022/08/16 09:38:24;;;;;;;4.60;3.10;;;13.50;99.90;;;;;;4955428;28;20194;-74
2022/08/16 09:40:55;;;;;;;5.43;3.80;;;13.50;99.90;;;;;;4955536;28;20189;-74
2022/08/16 09:43:24;;;;;;;5.60;3.80;;;13.40;99.90;;;;;;4954473;28;20209;-74
2022/08/16 09:45:51;;;;;;;4.80;3.73;;;13.30;99.90;;;;;;4955820;28;20185;-75
2022/08/16 09:48:19;;;;;;;3.83;3.27;;;13.20;99.90;;;;;;4972753;28;20185;-73
2022/08/16 09:50:46;;;;;;;6.07;3.13;;;13.10;99.90;;;;;;4972598;28;20497;-73
2022/08/16 09:53:17;;;;;;;2.70;2.27;;;13.10;99.90;;;;;;4972580;28;20633;-75
2022/08/16 09:55:47;;;;;;;4.60;2.40;;;13.00;99.90;;;;;;4972618;28;20545;-74
2022/08/16 09:58:19;;;;;;;3.33;1.90;;;13.00;99.90;;;;;;4971909;28;20234;-73
2022/08/16 10:00:50;;;;;;;4.47;2.00;;;12.90;99.90;;;;;;4972401;28;20196;-74
2022/08/16 10:03:18;;;;;;;2.57;1.63;;;12.80;99.90;;;;;;4972577;28;20188;-73
2022/08/16 10:05:46;;;;;;;4.33;1.73;;;12.80;99.90;;;;;;4972561;28;20260;-74
2022/08/16 10:08:15;;;;;;;3.73;2.10;;;12.70;99.90;;;;;;4954560;28;20200;-74
2022/08/16 10:13:10;;;;;;;4.97;1.90;;;12.70;99.90;;;;;;4972423;28;20176;-73
2022/08/16 10:13:34;;;;;;;3.10;2.00;;;12.60;99.90;;;;;;4971891;28;20605;-73
2022/08/16 10:16:02;;;;;;;4.37;2.00;;;12.60;99.90;;;;;;4972503;28;20193;-75
2022/08/16 10:18:31;;;;;;;2.23;1.80;;;12.60;99.90;;;;;;4954335;28;20232;-73
2022/08/16 10:20:59;;;;;;;4.13;1.90;;;12.50;99.90;;;;;;4973419;28;20549;-74
2022/08/16 10:23:28;;;;;;;4.13;2.30;;;12.40;99.90;;;;;;4973877;28;20181;-73
2022/08/16 10:25:55;;;;;;;2.13;1.57;;;12.40;99.90;;;;;;4975607;28;20279;-73
2022/08/16 10:28:24;;;;;;;2.37;1.50;;;12.40;99.90;;;;;;4973530;28;20605;-73
2022/08/16 10:30:52;;;;;;;1.97;1.30;;;12.30;99.90;;;;;;4974670;28;20235;-73
2022/08/16 10:33:19;;;;;;;1.17;1.07;;;12.30;99.90;;;;;;4973287;28;20221;-73
2022/08/16 10:35:47;;;;;;;1.73;1.20;;;12.20;99.90;;;;;;4974089;28;20207;-74
2022/08/16 10:38:15;;;;;;;2.47;1.40;;;12.10;99.90;;;;;;4974269;28;20202;-73
2022/08/16 10:40:42;;;;;;;1.57;1.10;;;12.10;99.90;;;;;;4973334;28;20264;-74
2022/08/16 10:43:12;;;;;;;4.27;1.50;;;12.00;99.90;;;;;;4973623;28;20201;-74
2022/08/16 10:45:41;;;;;;;1.87;1.40;;;11.90;99.90;;;;;;4956614;28;20193;-71
2022/08/16 10:48:11;;;;;;;2.87;1.47;;;11.80;99.90;;;;;;4978032;28;20181;-72
2022/08/16 10:50:38;;;;;;;2.80;1.40;;;11.60;99.90;;;;;;4941061;29;20249;-74
2022/08/16 10:53:06;;;;;;;1.77;1.20;;;11.50;99.90;;;;;;4966362;28;20209;-73
2022/08/16 10:55:36;;;;;;;1.73;1.17;;;11.40;99.90;;;;;;4959353;28;20186;-73
2022/08/16 10:58:11;;;;;;;6.00;1.47;;;11.40;99.90;;;;;;4976540;28;20227;-74
2022/08/16 11:00:40;;;;;;;1.77;1.30;;;11.30;99.90;;;;;;4977314;28;20180;-69
2022/08/16 11:03:09;;;;;;;4.43;1.63;;;11.20;99.90;;;;;;4976528;28;20736;-74
2022/08/16 11:05:40;;;;;;;3.00;1.70;;;11.10;99.90;;;;;;4976493;28;20278;-71
2022/08/16 11:08:10;;;;;;;3.30;1.70;;;11.10;99.90;;;;;;4976395;28;20204;-70
2022/08/16 11:10:45;;;;;;;2.03;1.47;;;11.00;99.90;;;;;;4976196;28;20189;-71
2022/08/16 11:13:17;;;;;;;4.37;2.27;;;10.90;99.90;;;;;;4976316;28;20281;-71
2022/08/16 11:15:45;;;;;;;5.13;2.30;;;10.90;99.90;;;;;;4959060;28;20186;-70
2022/08/16 11:18:14;;;;;;;4.93;1.93;;;10.80;99.90;;;;;;4975602;28;20232;-71
2022/08/16 11:20:43;;;;;;;5.23;2.67;;;10.80;99.90;;;;;;4975795;28;20643;-71
2022/08/16 11:23:11;;;;;;;2.73;2.00;;;10.60;99.90;;;;;;4976468;28;20176;-71
2022/08/16 11:25:41;;;;;;;3.83;2.10;;;10.60;99.90;;;;;;4976001;28;20176;-71
2022/08/16 11:28:09;;;;;;;2.50;1.67;;;10.60;99.90;;;;;;4958938;28;20192;-70
2022/08/16 11:30:37;;;;;;;7.03;2.87;;;10.50;99.90;;;;;;4976119;28;20553;-69
2022/08/16 11:33:04;;;;;;;3.57;2.70;;;10.50;99.90;;;;;;4976036;28;20251;-72
2022/08/16 11:35:34;;;;;;;6.00;2.40;;;10.30;99.90;;;;;;4975721;28;20198;-71
2022/08/16 11:38:14;;;;;;;7.07;2.40;;;10.30;99.90;;;;;;4975643;28;20588;-71
2022/08/16 11:40:57;;;;;;;4.10;2.37;;;10.20;99.90;;;;;;4975895;28;20248;-74
2022/08/16 11:43:27;;;;;;;2.90;1.93;;;10.10;99.90;;;;;;4956780;29;20217;-73
2022/08/16 11:45:56;;;;;;;4.07;1.80;;;10.00;99.90;;;;;;4970189;28;20188;-71
2022/08/16 11:48:26;;;;;;;3.23;1.90;;;10.00;99.90;;;;;;4975891;28;20176;-69
2022/08/16 11:50:55;;;;;;;4.63;1.83;;;9.90;99.90;;;;;;4958475;28;20197;-69
2022/08/16 11:53:24;;;;;;;5.00;2.00;;;9.90;99.90;;;;;;4975989;28;20218;-71
2022/08/16 11:55:55;;;;;;;4.43;1.80;;;9.90;99.90;;;;;;4975733;28;20176;-74
2022/08/16 11:58:27;;;;;;;2.20;1.60;;;9.80;99.90;;;;;;4975398;28;20176;-72
2022/08/16 12:00:56;;;;;;;2.07;1.53;;;9.80;99.90;;;;;;4976345;28;20178;-72
2022/08/16 12:03:26;;;;;;;1.73;1.40;;;9.70;99.90;;;;;;4975712;28;20548;-74
2022/08/16 12:05:55;;;;;;;2.07;1.50;;;9.70;99.90;;;;;;4975685;28;20187;-71
2022/08/16 12:08:23;;;;;;;4.43;1.70;;;9.60;99.90;;;;;;4975256;28;20179;-71
2022/08/16 12:10:54;;;;;;;2.77;1.57;;;9.60;99.90;;;;;;4975537;28;20191;-68
2022/08/16 12:13:23;;;;;;;2.27;1.63;;;9.50;99.90;;;;;;4958527;28;20616;-70
2022/08/16 12:15:50;;;;;;;2.03;1.67;;;9.50;99.90;;;;;;4958429;28;20837;-71
2022/08/16 12:18:18;;;;;;;2.60;1.73;;;9.50;99.90;;;;;;4975175;28;20676;-73
2022/08/16 12:20:45;;;;;;;2.30;1.30;;;9.40;99.90;;;;;;4975677;28;20644;-73
2022/08/16 12:23:14;;;;;;;2.20;1.67;;;9.40;99.90;;;;;;4975089;28;20221;-73
2022/08/16 12:25:41;;;;;;;4.60;1.90;;;9.40;99.90;;;;;;4975309;28;20168;-70
2022/08/16 12:28:10;;;;;;;3.57;1.60;;;9.40;99.90;;;;;;4975016;28;20186;-70
2022/08/16 12:30:42;;;;;;;2.20;1.90;;;9.40;99.90;;;;;;4958003;28;20551;-74
2022/08/16 12:33:15;;;;;;;2.23;1.73;;;9.30;99.90;;;;;;4975707;28;20211;-70
2022/08/16 12:35:45;;;;;;;3.10;1.80;;;9.20;99.90;;;;;;4942489;28;20192;-70
2022/08/16 12:38:13;;;;;;;1.93;1.73;;;9.20;99.90;;;;;;4974976;28;20183;-71
2022/08/16 12:40:45;;;;;;;5.47;2.10;;;9.20;99.90;;;;;;4974792;28;20603;-73
2022/08/16 12:43:14;;;;;;;3.50;2.10;;;9.10;99.90;;;;;;4975074;28;20546;-72
2022/08/16 12:45:48;;;;;;;5.40;2.30;;;9.10;99.90;;;;;;4958144;28;20557;-71
2022/08/16 12:51:08;;;;;;;6.33;1.87;;;9.10;99.90;;;;;;4960640;28;20202;-73
2022/08/16 12:53:39;;;;;;;3.10;2.10;;;9.00;99.90;;;;;;4974713;28;20319;-70
2022/08/16 12:56:11;;;;;;;3.23;2.27;;;9.00;99.90;;;;;;4974988;28;20615;-70
2022/08/16 12:58:44;;;;;;;3.73;2.00;;;9.00;99.90;;;;;;4974386;28;20215;-71
2022/08/16 13:01:11;;;;;;;3.27;2.10;;;9.00;99.90;;;;;;4974430;28;20271;-70